createdAt,value
2019-06-01T00:02:09.975Z,66.83
2019-06-01T00:04:40.929Z,66.92
2019-06-01T00:07:10.433Z,67.07
2019-06-01T00:09:40.929Z,66.88
2019-06-01T00:12:10.545Z,66.88
2019-06-01T00:14:39.896Z,67.03
2019-06-01T00:17:09.472Z,66.92
2019-06-01T00:19:39.890Z,66.80
2019-06-01T00:22:09.500Z,67.03
2019-06-01T00:24:38.882Z,67.05
2019-06-01T00:27:08.091Z,67.52
2019-06-01T00:29:37.316Z,67.06
2019-06-01T00:32:06.917Z,67.29
2019-06-01T00:34:36.482Z,67.54
2019-06-01T00:37:05.749Z,67.47
2019-06-01T00:39:35.128Z,67.28
2019-06-01T00:42:04.512Z,67.61
2019-06-01T00:44:33.864Z,67.53
2019-06-01T00:47:03.089Z,67.40
2019-06-01T00:49:32.632Z,67.55
2019-06-01T00:52:01.965Z,67.60
2019-06-01T00:54:31.278Z,68.03
2019-06-01T00:57:00.505Z,68.63
2019-06-01T00:59:30.051Z,69.05
2019-06-01T01:01:59.327Z,68.59
2019-06-01T01:04:28.591Z,68.71
2019-06-01T01:06:57.799Z,68.45
2019-06-01T01:09:27.243Z,69.47
2019-06-01T01:11:56.765Z,69.38
2019-06-01T01:14:26.008Z,69.85
2019-06-01T01:16:55.743Z,70.44
2019-06-01T01:19:25.567Z,71.38
2019-06-01T01:21:56.317Z,71.56
2019-06-01T01:24:25.911Z,71.48
2019-06-01T01:26:56.856Z,72.31
2019-06-01T01:29:26.763Z,72.20
2019-06-01T01:31:57.335Z,71.96
2019-06-01T01:34:26.694Z,71.82
2019-06-01T01:36:58.120Z,71.86
2019-06-01T01:39:27.765Z,71.80
2019-06-01T01:41:56.984Z,72.29
2019-06-01T01:44:26.466Z,72.18
2019-06-01T01:46:56.988Z,72.30
2019-06-01T01:49:26.623Z,72.64
2019-06-01T01:51:57.738Z,72.46
2019-06-01T01:54:26.980Z,72.59
2019-06-01T01:56:56.682Z,72.92
2019-06-01T01:59:25.907Z,72.67
2019-06-01T02:01:56.548Z,73.04
2019-06-01T02:04:27.966Z,72.96
2019-06-01T02:06:58.440Z,73.15
2019-06-01T02:09:27.684Z,73.47
2019-06-01T02:11:57.661Z,73.50
2019-06-01T02:14:26.998Z,73.39
2019-06-01T02:16:58.399Z,73.54
2019-06-01T02:19:27.655Z,73.63
2019-06-01T02:21:58.318Z,73.49
2019-06-01T02:24:28.121Z,73.25
2019-06-01T02:26:57.404Z,73.37
2019-06-01T02:29:27.134Z,73.43
2019-06-01T02:31:56.679Z,73.28
2019-06-01T02:34:25.992Z,73.17
2019-06-01T02:36:56.509Z,73.10
2019-06-01T02:39:26.483Z,72.99
2019-06-01T02:41:56.810Z,73.07
2019-06-01T02:44:26.047Z,73.70
2019-06-01T02:46:56.968Z,74.00
2019-06-01T02:49:26.804Z,74.16
2019-06-01T02:51:57.177Z,74.28
2019-06-01T02:54:27.133Z,74.09
2019-06-01T02:56:56.356Z,74.08
2019-06-01T02:59:25.640Z,73.95
2019-06-01T03:01:58.225Z,73.88
2019-06-01T03:04:26.494Z,74.02
2019-06-01T03:06:57.234Z,74.11
2019-06-01T03:09:26.648Z,73.86
2019-06-01T03:12:00.406Z,73.92
2019-06-01T03:14:29.864Z,73.70
2019-06-01T03:17:01.948Z,73.78
2019-06-01T03:19:32.430Z,73.92
2019-06-01T03:22:05.237Z,74.35
2019-06-01T03:24:37.746Z,74.35
2019-06-01T03:27:08.243Z,74.34
2019-06-01T03:29:40.927Z,74.36
2019-06-01T03:32:29.157Z,74.41
2019-06-01T03:34:41.466Z,74.50
2019-06-01T03:37:10.853Z,74.58
2019-06-01T03:39:40.387Z,74.57
2019-06-01T03:42:11.612Z,74.55
2019-06-01T03:44:41.356Z,74.51
2019-06-01T03:47:11.867Z,74.32
2019-06-01T03:49:41.613Z,74.26
2019-06-01T03:52:10.921Z,74.43
2019-06-01T03:54:40.482Z,74.56
2019-06-01T03:57:09.779Z,74.57
2019-06-01T03:59:38.997Z,74.45
2019-06-01T04:02:09.839Z,74.32
2019-06-01T04:04:39.417Z,73.85
2019-06-01T04:07:08.642Z,72.92
2019-06-01T04:09:38.304Z,72.40
2019-06-01T04:12:07.795Z,72.07
2019-06-01T04:14:37.073Z,71.33
2019-06-01T04:17:06.454Z,70.82
2019-06-01T04:19:36.346Z,70.10
2019-06-01T04:22:05.886Z,69.86
2019-06-01T04:24:35.219Z,69.18
2019-06-01T04:27:06.022Z,68.70
2019-06-01T04:29:35.421Z,68.20
2019-06-01T04:32:04.683Z,67.53
2019-06-01T04:34:35.777Z,67.31
2019-06-01T04:37:05.514Z,67.37
2019-06-01T04:39:34.719Z,67.56
2019-06-01T04:42:05.460Z,67.96
2019-06-01T04:44:35.197Z,67.36
2019-06-01T04:47:06.565Z,67.25
2019-06-01T04:49:36.249Z,67.45
2019-06-01T04:52:06.666Z,66.67
2019-06-01T04:54:36.606Z,65.49
2019-06-01T04:57:06.786Z,65.17
2019-06-01T04:59:37.888Z,65.58
2019-06-01T05:02:07.436Z,64.62
2019-06-01T05:04:36.613Z,62.50
2019-06-01T05:07:07.150Z,57.93
2019-06-01T05:09:36.518Z,52.41
2019-06-01T05:12:07.413Z,49.13
2019-06-01T05:14:38.555Z,46.86
2019-06-01T05:17:07.927Z,45.41
2019-06-01T05:19:37.134Z,44.51
2019-06-01T05:22:06.465Z,42.63
2019-06-01T05:24:36.302Z,42.88
2019-06-01T05:27:06.843Z,41.25
2019-06-01T05:29:36.686Z,40.00
2019-06-01T05:32:06.510Z,39.06
2019-06-01T05:34:35.715Z,38.33
2019-06-01T05:37:05.258Z,38.85
2019-06-01T05:39:34.482Z,39.17
2019-06-01T05:42:03.806Z,38.11
2019-06-01T05:44:33.780Z,37.97
2019-06-01T05:47:03.384Z,40.23
2019-06-01T05:49:33.276Z,40.06
2019-06-01T05:52:02.487Z,40.47
2019-06-01T05:54:32.197Z,40.78
2019-06-01T05:57:01.830Z,40.61
2019-06-01T05:59:32.796Z,40.10
2019-06-01T06:02:02.308Z,39.78
2019-06-01T06:04:31.834Z,39.25
2019-06-01T06:07:01.590Z,37.19
2019-06-01T06:09:30.832Z,37.67
2019-06-01T06:12:00.042Z,38.45
2019-06-01T06:14:30.400Z,37.76
2019-06-01T06:16:59.613Z,38.65
2019-06-01T06:19:28.867Z,38.84
2019-06-01T06:21:58.433Z,38.54
2019-06-01T06:24:27.793Z,39.42
2019-06-01T06:26:57.030Z,39.66
2019-06-01T06:29:26.429Z,42.15
2019-06-01T06:31:55.700Z,41.09
2019-06-01T06:34:24.917Z,40.79
2019-06-01T06:36:54.162Z,39.65
2019-06-01T06:39:24.203Z,41.08
2019-06-01T06:41:53.876Z,42.14
2019-06-01T06:44:24.690Z,40.22
2019-06-01T06:46:54.193Z,38.18
2019-06-01T06:49:23.730Z,38.67
2019-06-01T06:51:53.195Z,39.47
2019-06-01T06:54:23.841Z,39.51
2019-06-01T06:56:53.468Z,40.33
2019-06-01T06:59:24.499Z,37.96
2019-06-01T07:01:54.010Z,36.00
2019-06-01T07:04:23.680Z,37.74
2019-06-01T07:06:53.536Z,38.92
2019-06-01T07:09:23.967Z,39.73
2019-06-01T07:11:53.325Z,39.01
2019-06-01T07:14:23.471Z,41.81
2019-06-01T07:16:52.764Z,46.51
2019-06-01T07:19:23.769Z,50.69
2019-06-01T07:21:53.478Z,52.71
2019-06-01T07:24:23.920Z,55.02
2019-06-01T07:26:53.208Z,54.47
2019-06-01T07:29:24.275Z,54.29
2019-06-01T07:31:53.479Z,54.04
2019-06-01T07:34:33.302Z,53.96
2019-06-01T07:36:55.902Z,54.05
2019-06-01T07:39:26.753Z,54.30
2019-06-01T07:41:56.953Z,54.48
2019-06-01T07:44:27.359Z,54.31
2019-06-01T07:46:56.937Z,53.65
2019-06-01T07:49:26.971Z,53.65
2019-06-01T07:51:58.060Z,53.78
2019-06-01T07:54:29.277Z,53.99
2019-06-01T07:56:58.529Z,54.02
2019-06-01T07:59:28.223Z,54.44
2019-06-01T08:01:57.797Z,54.10
2019-06-01T08:04:28.594Z,52.94
2019-06-01T08:06:58.117Z,52.48
2019-06-01T08:09:27.883Z,52.26
2019-06-01T08:11:57.601Z,52.46
2019-06-01T08:14:28.621Z,51.53
2019-06-01T08:17:00.202Z,51.20
2019-06-01T08:19:30.137Z,50.72
2019-06-01T08:21:59.724Z,51.00
2019-06-01T08:24:29.265Z,51.29
2019-06-01T08:26:59.495Z,51.16
2019-06-01T08:29:30.793Z,48.73
2019-06-01T08:32:00.006Z,49.24
2019-06-01T08:34:29.250Z,49.36
2019-06-01T08:36:58.485Z,49.95
2019-06-01T08:39:27.732Z,49.06
2019-06-01T08:41:56.995Z,48.62
2019-06-01T08:44:27.720Z,48.31
2019-06-01T08:46:57.659Z,49.36
2019-06-01T08:49:28.015Z,47.86
2019-06-01T08:51:57.429Z,48.54
2019-06-01T08:54:28.530Z,48.94
2019-06-01T08:56:58.120Z,49.56
2019-06-01T08:59:30.417Z,50.73
2019-06-01T09:02:00.735Z,49.90
2019-06-01T09:04:30.763Z,50.73
2019-06-01T09:07:00.094Z,49.86
2019-06-01T09:09:29.337Z,49.36
2019-06-01T09:11:58.585Z,49.99
2019-06-01T09:14:29.101Z,50.81
2019-06-01T09:16:58.531Z,50.00
2019-06-01T09:19:29.330Z,49.64
2019-06-01T09:21:58.680Z,48.69
2019-06-01T09:24:29.654Z,49.55
2019-06-01T09:26:58.905Z,49.95
2019-06-01T09:29:30.009Z,50.64
2019-06-01T09:31:59.282Z,50.86
2019-06-01T09:34:30.328Z,50.12
2019-06-01T09:36:59.711Z,49.31
2019-06-01T09:39:29.290Z,50.30
2019-06-01T09:41:58.534Z,49.14
2019-06-01T09:44:28.839Z,49.20
2019-06-01T09:46:58.719Z,49.60
2019-06-01T09:49:29.137Z,47.65
2019-06-01T09:51:58.458Z,46.93
2019-06-01T09:54:29.424Z,47.20
2019-06-01T09:56:58.723Z,47.13
2019-06-01T09:59:28.007Z,47.67
2019-06-01T10:01:57.248Z,49.12
2019-06-01T10:04:26.508Z,48.98
2019-06-01T10:06:56.145Z,48.19
2019-06-01T10:09:25.835Z,47.82
2019-06-01T10:11:55.497Z,47.67
2019-06-01T10:14:24.750Z,48.70
2019-06-01T10:16:54.329Z,47.53
2019-06-01T10:19:24.040Z,47.05
2019-06-01T10:21:53.258Z,48.18
2019-06-01T10:24:22.843Z,47.17
2019-06-01T10:26:52.390Z,45.87
2019-06-01T10:29:23.443Z,46.75
2019-06-01T10:31:52.677Z,46.84
2019-06-01T10:34:21.906Z,47.34
2019-06-01T10:36:51.506Z,47.03
2019-06-01T10:39:20.761Z,46.71
2019-06-01T10:41:50.001Z,45.26
2019-06-01T10:44:19.606Z,46.20
2019-06-01T10:46:49.247Z,45.35
2019-06-01T10:49:18.837Z,45.92
2019-06-01T10:51:48.454Z,46.32
2019-06-01T10:54:19.173Z,46.63
2019-06-01T10:56:48.962Z,46.29
2019-06-01T10:59:18.984Z,46.34
2019-06-01T11:01:48.919Z,45.88
2019-06-01T11:04:18.184Z,46.95
2019-06-01T11:06:48.822Z,46.76
2019-06-01T11:09:18.260Z,45.92
2019-06-01T11:11:47.465Z,46.82
2019-06-01T11:14:17.068Z,46.82
2019-06-01T11:16:52.488Z,44.87
2019-06-01T11:19:19.193Z,44.56
2019-06-01T11:21:48.702Z,45.21
2019-06-01T11:24:17.960Z,44.38
2019-06-01T11:26:47.209Z,44.60
2019-06-01T11:29:16.513Z,44.53
2019-06-01T11:31:46.167Z,46.25
2019-06-01T11:34:16.200Z,45.97
2019-06-01T11:37:04.550Z,45.60
2019-06-01T11:39:19.720Z,45.98
2019-06-01T11:41:49.626Z,45.69
2019-06-01T11:44:19.197Z,45.58
2019-06-01T11:46:48.737Z,44.88
2019-06-01T11:49:21.088Z,45.32
2019-06-01T11:51:49.796Z,44.86
2019-06-01T11:54:19.413Z,44.24
2019-06-01T11:56:48.692Z,44.08
2019-06-01T11:59:21.263Z,43.82
2019-06-01T12:01:49.679Z,43.77
2019-06-01T12:04:18.921Z,44.75
2019-06-01T12:06:49.612Z,44.44
2019-06-01T12:09:19.224Z,44.71
2019-06-01T12:11:49.157Z,44.06
2019-06-01T12:14:18.659Z,44.97
2019-06-01T12:16:47.921Z,44.49
2019-06-01T12:19:17.175Z,43.73
2019-06-01T12:21:47.468Z,44.81
2019-06-01T12:24:17.145Z,43.85
2019-06-01T12:26:47.600Z,44.07
2019-06-01T12:29:17.415Z,44.42
2019-06-01T12:31:48.048Z,43.27
2019-06-01T12:34:17.532Z,43.14
2019-06-01T12:36:48.369Z,42.74
2019-06-01T12:39:17.742Z,42.75
2019-06-01T12:41:47.810Z,42.97
2019-06-01T12:44:18.261Z,41.83
2019-06-01T12:46:49.019Z,42.07
2019-06-01T12:49:18.327Z,43.40
2019-06-01T12:51:48.914Z,41.99
2019-06-01T12:54:18.846Z,42.01
2019-06-01T12:56:49.782Z,42.68
2019-06-01T12:59:19.916Z,42.64
2019-06-01T13:01:49.631Z,41.98
2019-06-01T13:04:19.720Z,41.93
2019-06-01T13:06:52.477Z,41.78
2019-06-01T13:09:21.294Z,39.34
2019-06-01T13:11:51.502Z,40.86
2019-06-01T13:14:20.961Z,39.99
2019-06-01T13:17:04.286Z,41.85
2019-06-01T13:19:21.502Z,40.41
2019-06-01T13:21:52.111Z,39.69
2019-06-01T13:24:21.344Z,39.47
2019-06-01T13:26:51.853Z,40.34
2019-06-01T13:29:21.601Z,39.46
2019-06-01T13:31:52.467Z,40.00
2019-06-01T13:34:22.484Z,40.35
2019-06-01T13:36:52.940Z,40.69
2019-06-01T13:39:22.198Z,39.82
2019-06-01T13:41:51.562Z,39.08
2019-06-01T13:44:21.241Z,39.05
2019-06-01T13:46:51.471Z,40.00
2019-06-01T13:49:20.903Z,37.33
2019-06-01T13:51:50.472Z,37.99
2019-06-01T13:54:20.225Z,38.73
2019-06-01T13:56:50.946Z,40.86
2019-06-01T13:59:20.359Z,40.17
2019-06-01T14:01:51.384Z,38.65
2019-06-01T14:04:21.613Z,38.26
2019-06-01T14:06:51.217Z,38.31
2019-06-01T14:09:22.061Z,38.42
2019-06-01T14:11:51.547Z,38.95
2019-06-01T14:14:20.926Z,38.26
2019-06-01T14:16:51.595Z,38.26
2019-06-01T14:19:21.383Z,38.35
2019-06-01T14:21:52.165Z,38.97
2019-06-01T14:24:21.497Z,39.36
2019-06-01T14:26:52.319Z,38.96
2019-06-01T14:29:22.455Z,38.58
2019-06-01T14:31:53.546Z,37.40
2019-06-01T14:34:22.715Z,38.14
2019-06-01T14:36:52.789Z,37.26
2019-06-01T14:39:22.414Z,39.04
2019-06-01T14:41:53.578Z,37.91
2019-06-01T14:44:23.719Z,37.81
2019-06-01T14:47:01.718Z,38.14
2019-06-01T14:49:26.833Z,37.71
2019-06-01T14:51:56.036Z,37.74
2019-06-01T14:54:25.564Z,38.16
2019-06-01T14:56:55.903Z,38.16
2019-06-01T14:59:27.016Z,39.74
2019-06-01T15:01:56.940Z,38.54
2019-06-01T15:04:26.217Z,38.54
2019-06-01T15:06:56.603Z,37.76
2019-06-01T15:09:27.995Z,37.59
2019-06-01T15:11:58.763Z,37.41
2019-06-01T15:14:28.744Z,36.53
2019-06-01T15:16:58.800Z,37.57
2019-06-01T15:19:28.063Z,36.98
2019-06-01T15:21:58.915Z,36.89
2019-06-01T15:24:29.521Z,36.37
2019-06-01T15:27:00.290Z,36.48
2019-06-01T15:29:29.946Z,36.05
2019-06-01T15:32:00.148Z,36.84
2019-06-01T15:34:29.926Z,37.42
2019-06-01T15:36:59.742Z,36.47
2019-06-01T15:39:29.083Z,36.11
2019-06-01T15:41:59.160Z,36.67
2019-06-01T15:44:29.059Z,36.79
2019-06-01T15:46:59.719Z,36.45
2019-06-01T15:49:29.088Z,36.43
2019-06-01T15:51:59.808Z,37.03
2019-06-01T15:54:31.025Z,36.52
2019-06-01T15:57:00.723Z,36.62
2019-06-01T15:59:30.113Z,36.39
2019-06-01T16:01:59.401Z,36.58
2019-06-01T16:04:29.094Z,36.47
2019-06-01T16:06:59.281Z,36.27
2019-06-01T16:09:42.298Z,37.22
2019-06-01T16:12:01.767Z,36.53
2019-06-01T16:14:31.345Z,36.08
2019-06-01T16:17:02.871Z,36.14
2019-06-01T16:19:32.755Z,37.16
2019-06-01T16:22:02.603Z,36.66
2019-06-01T16:24:33.815Z,36.65
2019-06-01T16:27:04.627Z,36.27
2019-06-01T16:29:34.060Z,35.82
2019-06-01T16:32:05.070Z,37.24
2019-06-01T16:34:34.421Z,37.21
2019-06-01T16:37:05.226Z,37.78
2019-06-01T16:39:35.162Z,38.00
2019-06-01T16:42:06.253Z,38.36
2019-06-01T16:44:36.035Z,38.53
2019-06-01T16:47:06.915Z,38.90
2019-06-01T16:49:37.036Z,39.20
2019-06-01T16:52:07.137Z,39.20
2019-06-01T16:54:36.455Z,39.15
2019-06-01T16:57:07.372Z,39.07
2019-06-01T16:59:37.096Z,39.78
2019-06-01T17:02:07.764Z,39.78
2019-06-01T17:04:37.552Z,39.91
2019-06-01T17:07:08.600Z,40.08
2019-06-01T17:09:37.830Z,40.18
2019-06-01T17:12:07.362Z,40.11
2019-06-01T17:14:37.002Z,39.69
2019-06-01T17:17:07.482Z,39.67
2019-06-01T17:19:36.810Z,39.13
2019-06-01T17:22:06.018Z,39.13
2019-06-01T17:24:35.623Z,39.84
2019-06-01T17:27:06.028Z,40.22
2019-06-01T17:29:35.714Z,40.43
2019-06-01T17:32:20.219Z,41.27
2019-06-01T17:34:35.919Z,41.50
2019-06-01T17:37:06.799Z,41.63
2019-06-01T17:39:36.015Z,42.18
2019-06-01T17:42:06.449Z,42.34
2019-06-01T17:44:35.677Z,42.78
2019-06-01T17:47:06.243Z,42.80
2019-06-01T17:49:37.610Z,43.27
2019-06-01T17:52:07.811Z,43.39
2019-06-01T17:54:37.212Z,43.53
2019-06-01T17:57:07.537Z,43.53
2019-06-01T17:59:37.457Z,43.50
2019-06-01T18:02:07.840Z,43.54
2019-06-01T18:04:37.568Z,43.79
2019-06-01T18:07:07.969Z,43.61
2019-06-01T18:09:38.297Z,43.80
2019-06-01T18:12:08.363Z,43.80
2019-06-01T18:14:37.569Z,43.78
2019-06-01T18:17:08.295Z,43.94
2019-06-01T18:19:37.972Z,44.14
2019-06-01T18:22:08.682Z,43.98
2019-06-01T18:24:38.014Z,44.29
2019-06-01T18:27:08.474Z,44.34
2019-06-01T18:29:48.094Z,44.09
2019-06-01T18:32:11.653Z,44.56
2019-06-01T18:34:40.868Z,43.92
2019-06-01T18:37:11.589Z,44.05
2019-06-01T18:39:41.922Z,43.98
2019-06-01T18:42:12.438Z,44.19
2019-06-01T18:44:42.109Z,44.02
2019-06-01T18:47:11.838Z,43.91
2019-06-01T18:49:41.633Z,43.97
2019-06-01T18:52:11.246Z,43.42
2019-06-01T18:54:40.655Z,43.11
2019-06-01T18:57:17.460Z,43.38
2019-06-01T18:59:41.314Z,43.60
2019-06-01T19:02:12.488Z,43.49
2019-06-01T19:04:42.437Z,43.69
2019-06-01T19:07:13.367Z,43.90
2019-06-01T19:09:43.013Z,43.97
2019-06-01T19:12:13.480Z,43.99
2019-06-01T19:14:42.857Z,44.08
2019-06-01T19:17:12.385Z,43.90
2019-06-01T19:19:42.377Z,44.09
2019-06-01T19:22:12.999Z,44.17
2019-06-01T19:24:42.618Z,44.64
2019-06-01T19:27:12.869Z,45.54
2019-06-01T19:29:42.151Z,46.51
2019-06-01T19:32:12.863Z,48.37
2019-06-01T19:34:42.510Z,49.29
2019-06-01T19:37:13.078Z,50.88
2019-06-01T19:39:43.439Z,52.20
2019-06-01T19:42:13.445Z,53.47
2019-06-01T19:44:43.276Z,54.59
2019-06-01T19:47:13.835Z,55.36
2019-06-01T19:49:44.056Z,55.80
2019-06-01T19:52:14.566Z,56.45
2019-06-01T19:54:44.369Z,57.03
2019-06-01T19:57:18.074Z,57.48
2019-06-01T19:59:45.708Z,58.22
2019-06-01T20:02:29.525Z,58.47
2019-06-01T20:04:46.226Z,58.75
2019-06-01T20:07:15.491Z,58.91
2019-06-01T20:09:45.114Z,59.50
2019-06-01T20:12:18.281Z,59.53
2019-06-01T20:14:46.873Z,59.39
2019-06-01T20:17:17.703Z,59.68
2019-06-01T20:19:47.415Z,60.09
2019-06-01T20:22:17.030Z,60.12
2019-06-01T20:24:46.945Z,60.44
2019-06-01T20:27:17.452Z,60.68
2019-06-01T20:29:46.964Z,60.98
2019-06-01T20:32:16.180Z,61.37
2019-06-01T20:34:45.435Z,61.58
2019-06-01T20:37:15.950Z,61.91
2019-06-01T20:39:45.618Z,61.99
2019-06-01T20:42:22.241Z,62.26
2019-06-01T20:44:47.090Z,62.61
2019-06-01T20:47:21.021Z,62.70
2019-06-01T20:49:50.370Z,62.88
2019-06-01T20:52:20.912Z,62.70
2019-06-01T20:54:50.221Z,63.06
2019-06-01T20:57:21.435Z,63.36
2019-06-01T20:59:50.804Z,63.49
2019-06-01T21:02:20.172Z,63.72
2019-06-01T21:04:50.110Z,64.08
2019-06-01T21:07:19.978Z,64.16
2019-06-01T21:09:49.618Z,64.30
2019-06-01T21:12:20.273Z,64.50
2019-06-01T21:14:51.205Z,64.89
2019-06-01T21:17:22.593Z,64.69
2019-06-01T21:19:52.006Z,64.47
2019-06-01T21:22:22.700Z,64.60
2019-06-01T21:24:52.004Z,64.99
2019-06-01T21:27:21.214Z,65.08
2019-06-01T21:29:50.887Z,65.42
2019-06-01T21:32:21.345Z,65.58
2019-06-01T21:34:51.171Z,65.53
2019-06-01T21:37:21.460Z,65.71
2019-06-01T21:39:50.972Z,65.71
2019-06-01T21:42:21.626Z,66.01
2019-06-01T21:44:50.938Z,66.13
2019-06-01T21:47:20.197Z,65.89
2019-06-01T21:49:49.423Z,66.13
2019-06-01T21:52:19.915Z,66.72
2019-06-01T21:54:49.200Z,66.57
2019-06-01T21:57:20.156Z,66.50
2019-06-01T21:59:50.478Z,66.86
2019-06-01T22:02:21.083Z,66.79
2019-06-01T22:04:50.757Z,67.43
2019-06-01T22:07:21.132Z,67.23
2019-06-01T22:09:50.489Z,67.42
2019-06-01T22:12:21.375Z,67.82
2019-06-01T22:14:50.740Z,67.69
2019-06-01T22:17:21.775Z,67.54
2019-06-01T22:19:51.145Z,67.77
2019-06-01T22:22:21.625Z,67.88
2019-06-01T22:24:51.291Z,67.77
2019-06-01T22:27:22.097Z,67.86
2019-06-01T22:29:51.457Z,67.89
2019-06-01T22:32:25.589Z,67.99
2019-06-01T22:34:52.176Z,68.56
2019-06-01T22:37:21.670Z,67.95
2019-06-01T22:39:51.011Z,68.23
2019-06-01T22:42:20.258Z,68.43
2019-06-01T22:44:49.822Z,68.45
2019-06-01T22:47:20.413Z,68.37
2019-06-01T22:49:50.083Z,68.18
2019-06-01T22:52:20.860Z,68.88
2019-06-01T22:54:50.712Z,69.08
2019-06-01T22:57:20.448Z,69.08
2019-06-01T22:59:50.341Z,68.79
2019-06-01T23:02:19.594Z,68.98
2019-06-01T23:04:49.211Z,69.18
2019-06-01T23:07:18.947Z,69.46
2019-06-01T23:09:48.548Z,69.32
2019-06-01T23:12:19.087Z,69.65
2019-06-01T23:14:48.659Z,69.49
2019-06-01T23:17:18.223Z,69.35
2019-06-01T23:19:47.855Z,69.69
2019-06-01T23:22:17.751Z,69.69
2019-06-01T23:24:47.764Z,70.24
2019-06-01T23:27:17.038Z,70.46
2019-06-01T23:29:46.571Z,71.04
2019-06-01T23:32:15.780Z,71.01
2019-06-01T23:34:45.602Z,70.85
2019-06-01T23:37:14.834Z,71.23
2019-06-01T23:39:44.403Z,71.10
2019-06-01T23:42:13.774Z,71.03
2019-06-01T23:44:43.022Z,71.05
2019-06-01T23:47:12.914Z,70.88
2019-06-01T23:49:42.422Z,70.99
2019-06-01T23:52:11.690Z,71.52
2019-06-01T23:54:41.405Z,71.56
2019-06-01T23:57:10.628Z,71.21
2019-06-01T23:59:40.257Z,71.50
